Time;durP1;ratioP1;P1;durP2;ratioP2;P2;SDS_P1;SDS_P2;PMS_P1;PMS_P2;Temp;Humidity;BMP_temperature;BMP_pressure;BME280_temperature;BME280_humidity;BME280_pressure;Samples;Min_cycle;Max_cycle;Signal;HPM_P1;HPM_P2
2022/05/05 00:02:01;;;;;;;2.97;2.33;;;;;;;;;;4976098;28;20041;-80
2022/05/05 00:04:27;;;;;;;3.38;1.92;;;;;;;;;;4975218;28;20043;-81
2022/05/05 00:06:53;;;;;;;4.28;2.15;;;;;;;;;;4974391;28;20040;-80
2022/05/05 00:09:19;;;;;;;3.25;1.95;;;;;;;;;;4972200;28;20026;-80
2022/05/05 00:14:32;;;;;;;4.07;2.15;;;;;;;;;;4986407;28;20518;-81
2022/05/05 00:17:03;;;;;;;2.88;2.45;;;;;;;;;;4973654;28;20031;-81
2022/05/05 00:19:32;;;;;;;4.32;2.95;;;14.10;99.50;;;;;;4974739;28;20515;-80
2022/05/05 00:21:59;;;;;;;3.63;2.08;;;;;;;;;;4979671;28;20121;-80
2022/05/05 00:24:25;;;;;;;6.32;2.28;;;13.80;99.20;;;;;;4982464;28;20031;-80
2022/05/05 00:26:51;;;;;;;7.47;2.80;;;;;;;;;;4970846;28;20037;-81
2022/05/05 00:29:17;;;;;;;5.95;2.70;;;;;;;;;;4974134;28;20126;-80
2022/05/05 00:31:44;;;;;;;4.53;2.95;;;;;;;;;;4974684;28;20147;-81
2022/05/05 00:34:10;;;;;;;6.00;2.47;;;;;;;;;;4979765;28;20113;-80
2022/05/05 00:36:36;;;;;;;5.38;2.88;;;;;;;;;;4979627;28;20117;-80
2022/05/05 00:39:02;;;;;;;5.75;3.00;;;14.10;99.30;;;;;;4976298;28;20057;-80
2022/05/05 00:41:32;;;;;;;6.40;3.40;;;;;;;;;;4990867;28;20077;-81
2022/05/05 00:43:58;;;;;;;4.97;2.85;;;;;;;;;;4978652;28;20041;-80
2022/05/05 00:46:24;;;;;;;4.00;2.08;;;;;;;;;;4979664;28;20023;-80
2022/05/05 00:48:50;;;;;;;6.35;2.95;;;;;;;;;;4978212;28;20118;-80
2022/05/05 00:51:17;;;;;;;4.70;2.65;;;;;;;;;;4977807;28;20076;-80
2022/05/05 00:53:43;;;;;;;6.07;2.67;;;;;;;;;;4973619;28;20121;-81
2022/05/05 00:56:14;;;;;;;3.65;2.38;;;;;;;;;;4990905;28;20030;-81
2022/05/05 00:58:43;;;;;;;5.38;3.10;;;13.90;99.50;;;;;;4978677;28;20053;-80
2022/05/05 01:01:09;;;;;;;5.53;2.88;;;;;;;;;;4978410;28;20039;-81
2022/05/05 01:03:36;;;;;;;2.80;2.15;;;13.90;99.50;;;;;;4980195;28;20030;-80
2022/05/05 01:06:06;;;;;;;4.78;3.13;;;14.00;99.80;;;;;;4975417;28;20084;-80
2022/05/05 01:08:36;;;;;;;5.80;2.70;;;;;;;;;;4974120;28;20062;-80
2022/05/05 01:11:02;;;;;;;2.60;1.90;;;;;;;;;;4991174;28;20534;-80
2022/05/05 01:13:29;;;;;;;2.85;2.00;;;;;;;;;;4980410;28;20023;-80
2022/05/05 01:15:55;;;;;;;4.05;3.17;;;;;;;;;;4975875;28;20121;-80
2022/05/05 01:18:21;;;;;;;4.53;2.88;;;;;;;;;;4978032;28;20046;-79
2022/05/05 01:20:49;;;;;;;5.13;3.05;;;;;;;;;;4974049;28;20129;-80
2022/05/05 01:23:16;;;;;;;5.20;2.60;;;;;;;;;;4988698;28;20029;-80
2022/05/05 01:28:29;;;;;;;9.02;4.00;;;14.00;99.40;;;;;;4977728;28;20096;-80
2022/05/05 01:30:55;;;;;;;9.05;4.55;;;;;;;;;;4978171;28;20030;-80
2022/05/05 01:33:22;;;;;;;9.60;4.60;;;;;;;;;;4984869;28;20038;-80
2022/05/05 01:35:55;;;;;;;10.27;5.55;;;;;;;;;;4973493;28;20066;-81
2022/05/05 01:38:36;;;;;;;11.38;3.88;;;;;;;;;;4983676;28;20042;-80
2022/05/05 01:41:13;;;;;;;8.57;5.50;;;;;;;;;;4990597;28;20061;-80
2022/05/05 01:43:39;;;;;;;10.18;5.05;;;;;;;;;;4978389;28;20101;-80
2022/05/05 01:46:06;;;;;;;10.88;6.03;;;;;;;;;;4981527;28;20030;-80
2022/05/05 01:48:32;;;;;;;11.95;6.47;;;;;;;;;;4983469;28;20129;-81
2022/05/05 01:50:59;;;;;;;13.20;6.05;;;;;;;;;;4975282;28;20065;-80
2022/05/05 01:53:25;;;;;;;13.07;6.88;;;;;;;;;;4989331;28;20514;-80
2022/05/05 01:55:51;;;;;;;13.13;6.30;;;;;;;;;;4974426;28;20038;-80
2022/05/05 01:58:17;;;;;;;13.55;6.68;;;;;;;;;;4977218;28;20514;-81
2022/05/05 02:00:43;;;;;;;13.25;6.95;;;;;;;;;;4974108;28;20053;-80
2022/05/05 02:03:15;;;;;;;9.55;6.88;;;;;;;;;;4975737;28;20035;-81
2022/05/05 02:05:44;;;;;;;10.55;6.07;;;;;;;;;;4974026;28;20404;-80
2022/05/05 02:08:12;;;;;;;10.43;5.32;;;13.90;97.90;;;;;;4976509;28;20030;-80
2022/05/05 02:10:38;;;;;;;13.32;6.78;;;;;;;;;;4977214;28;20106;-80
2022/05/05 02:13:04;;;;;;;10.82;6.18;;;;;;;;;;4977307;28;20074;-80
2022/05/05 02:15:32;;;;;;;10.55;5.43;;;;;;;;;;4977329;28;20030;-81
2022/05/05 02:18:06;;;;;;;10.50;5.80;;;;;;;;;;4973114;28;20062;-79
2022/05/05 02:20:32;;;;;;;11.70;6.47;;;;;;;;;;4989641;28;20027;-80
2022/05/05 02:22:57;;;;;;;10.93;6.10;;;;;;;;;;4974143;28;20035;-80
2022/05/05 02:25:23;;;;;;;11.35;6.30;;;;;;;;;;4992032;28;20022;-80
2022/05/05 02:27:52;;;;;;;15.70;7.65;;;14.10;97.80;;;;;;4976519;28;20041;-80
2022/05/05 02:30:19;;;;;;;13.90;6.18;;;;;;;;;;4976599;28;20377;-80
2022/05/05 02:32:45;;;;;;;9.32;5.88;;;;;;;;;;4976817;28;20109;-80
2022/05/05 02:35:11;;;;;;;12.02;7.07;;;;;;;;;;4976880;28;20035;-81
2022/05/05 02:40:22;;;;;;;14.85;7.75;;;;;;;;;;4986354;28;20125;-80
2022/05/05 02:42:48;;;;;;;12.48;6.40;;;;;;;;;;4981781;28;20043;-81
2022/05/05 02:45:14;;;;;;;20.50;8.10;;;;;;;;;;4975965;28;20030;-79
2022/05/05 02:47:40;;;;;;;11.88;7.55;;;;;;;;;;4972760;28;20149;-81
2022/05/05 02:50:06;;;;;;;9.68;6.28;;;;;;;;;;4984474;28;20125;-80
2022/05/05 02:52:32;;;;;;;12.80;7.38;;;;;;;;;;4978880;28;20129;-80
2022/05/05 02:54:58;;;;;;;13.10;6.82;;;;;;;;;;4976913;28;20470;-80
2022/05/05 02:57:24;;;;;;;12.00;6.82;;;;;;;;;;4976399;28;20034;-80
2022/05/05 02:59:51;;;;;;;11.07;5.75;;;;;;;;;;4973382;28;20128;-80
2022/05/05 03:02:18;;;;;;;14.30;6.40;;;;;;;;;;4984311;28;20058;-80
2022/05/05 03:04:44;;;;;;;14.68;6.82;;;;;;;;;;4976641;28;20037;-80
2022/05/05 03:07:10;;;;;;;9.57;6.30;;;;;;;;;;4978893;28;20034;-80
2022/05/05 03:09:36;;;;;;;16.25;7.50;;;;;;;;;;4975924;28;20045;-81
2022/05/05 03:12:02;;;;;;;9.80;5.55;;;;;;;;;;4988228;28;20027;-80
2022/05/05 03:14:28;;;;;;;14.07;5.95;;;;;;;;;;4974012;28;20046;-81
2022/05/05 03:16:54;;;;;;;11.27;7.07;;;;;;;;;;4975668;28;20530;-80
2022/05/05 03:19:20;;;;;;;12.00;6.80;;;;;;;;;;4977202;28;20065;-81
2022/05/05 03:21:46;;;;;;;15.98;7.28;;;;;;;;;;4976667;28;20073;-80
2022/05/05 03:24:12;;;;;;;10.85;6.50;;;;;;;;;;4975816;28;20100;-80
2022/05/05 03:26:38;;;;;;;15.13;6.28;;;;;;;;;;4972787;28;20695;-80
2022/05/05 03:29:04;;;;;;;13.30;7.10;;;;;;;;;;4975145;28;20054;-80
2022/05/05 03:31:30;;;;;;;12.73;6.32;;;;;;;;;;4977136;28;20035;-80
2022/05/05 03:33:56;;;;;;;14.77;7.03;;;;;;;;;;4975644;28;20041;-81
2022/05/05 03:36:23;;;;;;;11.52;6.72;;;;;;;;;;4984288;28;20034;-81
2022/05/05 03:38:49;;;;;;;16.73;8.18;;;;;;;;;;4972640;28;20031;-81
2022/05/05 03:41:15;;;;;;;13.90;6.75;;;;;;;;;;4987237;28;20077;-80
2022/05/05 03:43:41;;;;;;;14.32;6.70;;;;;;;;;;4975941;28;20070;-81
2022/05/05 03:46:07;;;;;;;12.65;6.88;;;;;;;;;;4975303;28;20488;-81
2022/05/05 03:48:34;;;;;;;14.32;6.63;;;;;;;;;;4976163;28;20037;-80
2022/05/05 03:51:00;;;;;;;15.20;7.30;;;;;;;;;;4975703;28;20101;-81
2022/05/05 03:53:26;;;;;;;11.02;6.40;;;;;;;;;;4971356;28;20022;-80
2022/05/05 03:55:52;;;;;;;11.23;7.22;;;;;;;;;;4989412;28;20108;-81
2022/05/05 03:58:18;;;;;;;13.88;7.13;;;;;;;;;;4977948;28;20031;-81
2022/05/05 04:00:46;;;;;;;12.25;5.85;;;;;;;;;;4972429;28;20050;-80
2022/05/05 04:03:30;;;;;;;11.50;6.68;;;;;;;;;;4972298;28;20035;-81
2022/05/05 04:05:56;;;;;;;10.13;5.47;;;;;;;;;;4986556;28;20105;-80
2022/05/05 04:08:22;;;;;;;12.32;6.18;;;;;;;;;;4969507;28;20019;-81
2022/05/05 04:10:48;;;;;;;16.42;6.85;;;;;;;;;;4984697;28;20027;-81
2022/05/05 04:13:14;;;;;;;15.07;7.00;;;;;;;;;;4975799;28;20026;-81
2022/05/05 04:15:40;;;;;;;14.85;6.88;;;;;;;;;;4975523;28;20121;-81
2022/05/05 04:18:06;;;;;;;11.98;6.38;;;;;;;;;;4972547;28;20022;-81
2022/05/05 04:20:32;;;;;;;15.82;8.43;;;;;;;;;;4978651;28;20513;-80
2022/05/05 04:22:58;;;;;;;12.90;7.20;;;;;;;;;;4987389;28;20106;-80
2022/05/05 04:25:24;;;;;;;11.48;7.03;;;;;;;;;;4977910;28;20058;-81
2022/05/05 04:27:51;;;;;;;13.38;5.93;;;;;;;;;;4974506;28;20038;-80
2022/05/05 04:30:17;;;;;;;9.75;5.97;;;;;;;;;;4975773;28;20038;-80
2022/05/05 04:32:44;;;;;;;14.52;7.85;;;;;;;;;;4972204;28;20483;-80
2022/05/05 04:35:13;;;;;;;12.55;6.07;;;;;;;;;;4970570;28;20038;-81
2022/05/05 04:37:39;;;;;;;10.60;6.18;;;;;;;;;;4989572;28;20031;-81
2022/05/05 04:40:06;;;;;;;10.43;6.25;;;13.30;98.90;;;;;;4984573;28;20018;-81
2022/05/05 04:42:32;;;;;;;10.73;5.50;;;;;;;;;;4983847;28;20055;-81
2022/05/05 04:44:58;;;;;;;12.30;6.03;;;;;;;;;;4972231;28;20034;-80
2022/05/05 04:47:24;;;;;;;9.35;6.65;;;;;;;;;;4988054;28;20483;-80
2022/05/05 04:49:51;;;;;;;14.02;6.65;;;;;;;;;;4987698;28;20033;-81
2022/05/05 04:52:17;;;;;;;15.13;5.88;;;;;;;;;;4976037;28;20035;-80
2022/05/05 04:54:43;;;;;;;14.50;6.63;;;;;;;;;;4972405;28;20030;-81
2022/05/05 04:57:09;;;;;;;10.73;5.65;;;;;;;;;;4973021;28;20031;-80
2022/05/05 04:59:35;;;;;;;9.15;6.03;;;;;;;;;;4970865;28;20385;-81
2022/05/05 05:02:02;;;;;;;14.23;8.00;;;;;;;;;;4974213;28;20046;-80
2022/05/05 05:04:28;;;;;;;14.43;7.28;;;;;;;;;;4980392;28;20026;-80
2022/05/05 05:06:55;;;;;;;13.57;7.07;;;;;;;;;;4987481;28;20057;-80
2022/05/05 05:09:20;;;;;;;15.45;7.28;;;;;;;;;;4985426;28;20030;-80
2022/05/05 05:11:46;;;;;;;14.65;7.60;;;;;;;;;;4986902;28;20041;-81
2022/05/05 05:14:12;;;;;;;10.27;5.03;;;;;;;;;;4987290;28;20117;-80
2022/05/05 05:16:38;;;;;;;13.27;5.47;;;;;;;;;;4986352;28;20038;-80
2022/05/05 05:19:05;;;;;;;19.10;7.07;;;;;;;;;;4987235;28;20034;-80
2022/05/05 05:21:31;;;;;;;13.50;6.28;;;;;;;;;;4989389;28;20113;-82
2022/05/05 05:23:57;;;;;;;7.80;4.85;;;;;;;;;;4989857;28;20057;-81
2022/05/05 05:26:23;;;;;;;12.68;5.40;;;;;;;;;;4987438;28;20499;-81
2022/05/05 05:28:49;;;;;;;10.73;6.35;;;;;;;;;;4989790;28;20068;-80
2022/05/05 05:31:16;;;;;;;11.05;5.93;;;;;;;;;;4982378;28;20810;-80
2022/05/05 05:33:42;;;;;;;11.90;6.83;;;;;;;;;;4984985;28;20030;-80
2022/05/05 05:36:08;;;;;;;12.73;6.75;;;;;;;;;;4987549;28;20041;-80
2022/05/05 05:38:35;;;;;;;9.23;4.82;;;;;;;;;;4976193;28;20047;-81
2022/05/05 05:41:01;;;;;;;13.18;5.53;;;;;;;;;;4998004;28;20045;-80
2022/05/05 05:43:27;;;;;;;14.35;6.65;;;;;;;;;;4985039;28;20400;-80
2022/05/05 05:45:53;;;;;;;10.00;5.53;;;;;;;;;;4992577;28;20030;-80
2022/05/05 05:48:19;;;;;;;6.88;5.13;;;;;;;;;;4987086;28;20027;-81
2022/05/05 05:50:45;;;;;;;8.88;5.15;;;;;;;;;;4972441;28;20372;-81
2022/05/05 05:53:11;;;;;;;10.50;4.75;;;;;;;;;;4982325;28;20029;-80
2022/05/05 05:55:37;;;;;;;8.35;4.32;;;;;;;;;;4977390;28;20031;-82
2022/05/05 05:58:03;;;;;;;10.18;4.93;;;;;;;;;;4975634;28;20396;-80
2022/05/05 06:00:32;;;;;;;14.23;5.43;;;;;;;;;;4976728;28;20034;-81
2022/05/05 06:05:42;;;;;;;7.07;4.70;;;;;;;;;;4971869;28;20050;-80
2022/05/05 06:08:08;;;;;;;10.07;4.93;;;;;;;;;;4975301;28;20026;-81
2022/05/05 06:10:36;;;;;;;7.53;5.25;;;;;;;;;;4985513;28;20092;-80
2022/05/05 06:13:03;;;;;;;11.75;5.55;;;;;;;;;;4983297;28;20027;-81
2022/05/05 06:15:29;;;;;;;9.83;5.27;;;;;;;;;;4976727;28;20026;-81
2022/05/05 06:17:56;;;;;;;8.52;4.85;;;;;;;;;;4974420;28;20038;-81
2022/05/05 06:20:22;;;;;;;7.68;4.50;;;;;;;;;;4986496;28;20526;-79
2022/05/05 06:22:50;;;;;;;8.63;4.72;;;;;;;;;;4985769;28;20515;-78
2022/05/05 06:25:18;;;;;;;9.00;4.38;;;;;;;;;;4985191;28;20761;-81
2022/05/05 06:27:44;;;;;;;6.35;4.28;;;;;;;;;;4984298;28;20519;-80
2022/05/05 06:30:12;;;;;;;9.40;4.00;;;;;;;;;;4984599;28;20030;-80
2022/05/05 06:32:38;;;;;;;8.25;5.55;;;;;;;;;;4981005;28;20026;-77
2022/05/05 06:35:05;;;;;;;10.95;4.65;;;;;;;;;;4987304;28;20567;-77
2022/05/05 06:37:31;;;;;;;12.38;5.63;;;;;;;;;;4984330;28;20030;-76
2022/05/05 06:39:56;;;;;;;11.25;4.63;;;;;;;;;;4985721;28;20048;-76
2022/05/05 06:42:23;;;;;;;8.27;5.18;;;;;;;;;;4980553;28;20058;-77
2022/05/05 06:44:49;;;;;;;7.68;4.90;;;;;;;;;;4985148;28;20454;-77
2022/05/05 06:47:15;;;;;;;15.02;5.63;;;;;;;;;;4987152;28;20060;-77
2022/05/05 06:49:41;;;;;;;7.40;4.65;;;;;;;;;;4977911;28;20480;-77
2022/05/05 06:52:07;;;;;;;7.43;4.15;;;;;;;;;;4987247;28;20027;-78
2022/05/05 06:54:35;;;;;;;7.90;4.75;;;;;;;;;;4987228;28;20078;-77
2022/05/05 06:57:01;;;;;;;9.50;4.75;;;;;;;;;;4982728;28;20518;-79
2022/05/05 06:59:27;;;;;;;10.63;5.90;;;;;;;;;;4972943;28;20491;-79
2022/05/05 07:01:53;;;;;;;10.63;6.13;;;;;;;;;;4985168;28;20125;-79
2022/05/05 07:07:08;;;;;;;8.15;4.07;;;;;;;;;;4987955;28;20046;-77
2022/05/05 07:12:19;;;;;;;10.57;5.55;;;;;;;;;;4988961;28;20510;-76
2022/05/05 07:14:45;;;;;;;7.13;4.60;;;;;;;;;;4983623;28;20043;-80
2022/05/05 07:17:12;;;;;;;8.93;6.18;;;;;;;;;;4986623;28;20022;-78
2022/05/05 07:19:38;;;;;;;8.03;4.27;;;;;;;;;;4987419;28;20033;-77
2022/05/05 07:22:04;;;;;;;16.17;5.40;;;;;;;;;;4986630;28;20042;-77
2022/05/05 07:24:31;;;;;;;11.13;4.85;;;;;;;;;;4986928;28;20034;-77
2022/05/05 07:26:57;;;;;;;9.02;4.88;;;;;;;;;;4988993;28;20408;-77
2022/05/05 07:29:23;;;;;;;9.35;5.47;;;;;;;;;;4985719;28;20034;-78
2022/05/05 07:31:49;;;;;;;7.60;4.22;;;;;;;;;;4988026;28;20041;-78
2022/05/05 07:34:15;;;;;;;6.55;4.10;;;22.00;84.10;;;;;;4981605;28;20027;-80
2022/05/05 07:36:42;;;;;;;7.88;3.58;;;;;;;;;;4986250;28;20038;-81
2022/05/05 07:39:08;;;;;;;11.60;5.27;;;;;;;;;;4985526;28;20505;-79
2022/05/05 07:41:34;;;;;;;7.13;3.85;;;;;;;;;;4987609;28;20152;-79
2022/05/05 07:44:01;;;;;;;6.73;4.23;;;;;;;;;;4987354;28;20027;-79
2022/05/05 07:46:28;;;;;;;6.43;3.90;;;;;;;;;;4983774;28;20381;-79
2022/05/05 07:48:54;;;;;;;8.60;4.90;;;;;;;;;;4984864;28;20031;-78
2022/05/05 07:51:21;;;;;;;8.88;4.50;;;;;;;;;;4984681;28;20038;-79
2022/05/05 07:54:34;;;;;;;10.03;3.63;;;;;;;;;;4985394;28;20550;-79
2022/05/05 07:56:33;;;;;;;9.30;5.33;;;;;;;;;;4985963;28;20277;-80
2022/05/05 07:58:59;;;;;;;6.03;4.10;;;;;;;;;;4986205;28;20029;-79
2022/05/05 08:01:25;;;;;;;5.35;3.47;;;;;;;;;;4987003;28;20064;-79
2022/05/05 08:03:51;;;;;;;5.15;2.88;;;;;;;;;;4985988;28;20034;-79
2022/05/05 08:06:17;;;;;;;8.15;4.18;;;;;;;;;;4986713;28;20034;-80
2022/05/05 08:08:43;;;;;;;10.48;3.40;;;;;;;;;;4975461;28;20060;-79
2022/05/05 08:11:09;;;;;;;14.00;4.32;;;;;;;;;;5002826;28;20527;-79
2022/05/05 08:13:35;;;;;;;10.05;4.68;;;;;;;;;;4977863;28;20031;-78
2022/05/05 08:16:01;;;;;;;8.73;4.53;;;;;;;;;;4977852;28;20030;-79
2022/05/05 08:18:27;;;;;;;7.60;3.85;;;21.30;80.00;;;;;;4971935;28;20042;-78
2022/05/05 08:20:53;;;;;;;5.57;4.25;;;;;;;;;;4986952;28;20423;-80
2022/05/05 08:23:19;;;;;;;9.45;3.50;;;;;;;;;;4973374;28;20473;-78
2022/05/05 08:28:31;;;;;;;10.45;4.35;;;;;;;;;;4977922;28;20053;-80
2022/05/05 08:30:57;;;;;;;8.43;4.13;;;;;;;;;;4974251;28;20058;-79
2022/05/05 08:33:27;;;;;;;6.18;3.40;;;;;;;;;;4986904;28;20499;-80
2022/05/05 08:35:53;;;;;;;3.47;1.80;;;;;;;;;;4971681;28;20061;-81
2022/05/05 08:38:19;;;;;;;5.53;1.80;;;;;;;;;;4973655;28;20392;-81
2022/05/05 08:40:44;;;;;;;5.85;2.65;;;20.40;62.80;;;;;;4986797;28;20046;-80
2022/05/05 08:43:11;;;;;;;6.05;2.00;;;;;;;;;;4985875;28;20043;-81
2022/05/05 08:45:38;;;;;;;9.52;3.17;;;;;;;;;;4985519;28;20030;-81
2022/05/05 08:48:08;;;;;;;4.45;2.70;;;;;;;;;;4973399;28;20080;-80
2022/05/05 08:50:36;;;;;;;9.70;2.55;;;19.00;66.10;;;;;;4985618;28;20041;-81
2022/05/05 08:53:04;;;;;;;9.27;3.45;;;;;;;;;;4988165;28;20042;-79
2022/05/05 08:55:31;;;;;;;7.80;2.65;;;;;;;;;;4988613;28;20498;-82
2022/05/05 08:57:57;;;;;;;11.18;3.58;;;;;;;;;;4986539;28;20055;-83
2022/05/05 09:00:24;;;;;;;4.40;2.42;;;;;;;;;;4979313;28;20042;-80
2022/05/05 09:02:54;;;;;;;10.90;3.47;;;;;;;;;;4982684;28;20072;-80
2022/05/05 09:05:39;;;;;;;3.00;2.40;;;;;;;;;;4992418;28;20458;-81
2022/05/05 09:08:05;;;;;;;5.95;2.60;;;;;;;;;;4984957;28;20037;-83
2022/05/05 09:10:42;;;;;;;3.88;2.53;;;;;;;;;;4988504;28;20041;-79
2022/05/05 09:13:08;;;;;;;5.45;2.53;;;;;;;;;;4985936;28;20435;-82
2022/05/05 09:15:35;;;;;;;5.40;2.42;;;;;;;;;;4991377;28;20038;-81
2022/05/05 09:18:12;;;;;;;4.43;3.00;;;18.30;69.50;;;;;;4990640;28;20379;-82
2022/05/05 09:20:38;;;;;;;3.83;1.98;;;;;;;;;;5002948;28;20038;-81
2022/05/05 09:23:04;;;;;;;3.15;1.95;;;;;;;;;;4980707;28;20037;-81
2022/05/05 09:25:49;;;;;;;7.03;3.80;;;;;;;;;;4981503;28;20785;-81
2022/05/05 09:28:19;;;;;;;6.07;3.15;;;;;;;;;;4983232;28;20121;-80
2022/05/05 09:30:46;;;;;;;8.13;2.72;;;;;;;;;;4977220;28;20031;-81
2022/05/05 09:33:13;;;;;;;5.07;2.63;;;;;;;;;;4988419;28;23182;-84
2022/05/05 09:35:42;;;;;;;5.90;3.00;;;;;;;;;;4974265;28;20586;-83
2022/05/05 09:38:08;;;;;;;7.32;2.60;;;;;;;;;;4990607;28;20109;-84
2022/05/05 09:40:34;;;;;;;6.50;2.95;;;;;;;;;;4987244;28;20072;-81
2022/05/05 09:43:01;;;;;;;7.05;2.83;;;;;;;;;;4985223;28;20055;-79
2022/05/05 09:45:32;;;;;;;5.60;3.28;;;;;;;;;;4975598;28;20066;-82
2022/05/05 09:48:01;;;;;;;4.95;2.53;;;19.90;65.20;;;;;;4989595;28;20411;-81
2022/05/05 09:50:28;;;;;;;6.55;2.85;;;;;;;;;;4989209;28;20096;-80
2022/05/05 09:58:26;;;;;;;8.15;2.83;;;;;;;;;;4985928;28;20041;-81
2022/05/05 10:01:04;;;;;;;5.68;1.80;;;;;;;;;;4986274;28;20031;-81
2022/05/05 10:06:23;;;;;;;7.45;2.28;;;19.40;64.20;;;;;;4986468;28;20150;-79
2022/05/05 10:08:51;;;;;;;5.60;2.67;;;;;;;;;;4990092;28;20030;-82
2022/05/05 10:11:19;;;;;;;4.25;2.13;;;;;;;;;;4990947;28;20061;-79
2022/05/05 10:13:45;;;;;;;4.18;2.88;;;;;;;;;;4978757;28;20114;-78
2022/05/05 10:16:14;;;;;;;6.18;2.38;;;;;;;;;;4978577;28;20420;-79
2022/05/05 10:18:40;;;;;;;5.85;2.38;;;;;;;;;;4976031;28;20117;-83
2022/05/05 10:21:15;;;;;;;4.25;1.95;;;;;;;;;;4996515;28;20034;-83
2022/05/05 10:23:56;;;;;;;4.00;2.67;;;22.00;57.40;;;;;;4988698;28;20089;-82
2022/05/05 10:26:26;;;;;;;6.05;2.35;;;;;;;;;;4976593;28;20106;-83
2022/05/05 10:28:52;;;;;;;4.88;2.08;;;;;;;;;;4986685;28;20034;-82
2022/05/05 10:31:30;;;;;;;6.75;2.67;;;22.90;51.60;;;;;;4983476;28;20023;-82
2022/05/05 10:34:06;;;;;;;5.50;1.63;;;;;;;;;;4985182;28;20583;-83
2022/05/05 10:36:33;;;;;;;5.00;2.50;;;;;;;;;;4984154;28;20042;-83
2022/05/05 10:38:59;;;;;;;2.90;2.05;;;;;;;;;;4988833;28;20479;-83
2022/05/05 10:41:36;;;;;;;4.32;1.77;;;21.60;55.90;;;;;;4989166;28;20046;-83
2022/05/05 10:44:21;;;;;;;3.03;2.22;;;;;;;;;;4986292;28;20035;-83
2022/05/05 10:47:05;;;;;;;6.22;2.03;;;20.90;57.60;;;;;;4989196;28;20036;-82
2022/05/05 10:52:12;;;;;;;8.10;2.90;;;20.60;57.60;;;;;;4984171;28;20034;-83
2022/05/05 10:54:38;;;;;;;9.68;3.50;;;;;;;;;;4986868;28;20037;-82
2022/05/05 10:57:25;;;;;;;5.97;2.33;;;20.10;60.80;;;;;;4989440;28;20113;-82
2022/05/05 11:00:11;;;;;;;6.00;2.67;;;20.10;59.20;;;;;;4985478;28;20081;-83
2022/05/05 11:02:41;;;;;;;4.45;2.50;;;;;;;;;;4989385;28;20117;-82
2022/05/05 11:05:24;;;;;;;4.15;2.30;;;;;;;;;;4986214;28;20153;-82
2022/05/05 11:07:51;;;;;;;5.88;2.92;;;;;;;;;;4984486;28;20042;-83
2022/05/05 11:13:44;;;;;;;4.05;1.73;;;;;;;;;;5005596;28;20034;-83
2022/05/05 11:22:10;;;;;;;3.25;1.70;;;19.70;60.40;;;;;;4999335;28;20049;-81
2022/05/05 11:24:37;;;;;;;2.60;1.85;;;;;;;;;;5004879;28;20057;-80
2022/05/05 11:27:03;;;;;;;3.45;2.30;;;;;;;;;;4988720;28;20030;-81
2022/05/05 11:29:30;;;;;;;4.97;2.55;;;;;;;;;;5005783;28;20060;-80
2022/05/05 11:31:57;;;;;;;6.05;2.13;;;;;;;;;;5006234;28;20073;-83
2022/05/05 11:34:31;;;;;;;5.78;2.65;;;;;;;;;;4980329;28;20088;-83
2022/05/05 11:36:58;;;;;;;6.05;2.67;;;;;;;;;;4994106;28;20036;-79
2022/05/05 11:39:24;;;;;;;;;;;;;;;;;;5005183;28;20095;-79
2022/05/05 11:41:57;;;;;;;3.92;1.92;;;;;;;;;;5005321;28;20416;-79
2022/05/05 11:44:25;;;;;;;4.65;1.98;;;;;;;;;;5004851;28;20026;-79
2022/05/05 11:46:52;;;;;;;7.47;2.20;;;;;;;;;;5005148;28;20105;-79
2022/05/05 11:49:18;;;;;;;6.72;2.85;;;;;;;;;;5004436;28;20104;-77
2022/05/05 11:51:44;;;;;;;5.30;3.58;;;;;;;;;;4986430;28;20599;-79
2022/05/05 11:54:17;;;;;;;5.63;3.10;;;;;;;;;;4990220;28;20026;-78
2022/05/05 11:56:45;;;;;;;4.15;2.30;;;;;;;;;;4970591;28;20125;-78
2022/05/05 12:01:59;;;;;;;2.83;1.80;;;;;;;;;;4984379;28;19928;-78
2022/05/05 12:04:25;;;;;;;4.53;2.03;;;;;;;;;;4978768;28;20708;-78
2022/05/05 12:06:51;;;;;;;4.68;2.45;;;;;;;;;;4978303;28;20039;-78
2022/05/05 12:09:20;;;;;;;4.82;2.50;;;;;;;;;;4987073;28;20033;-78
2022/05/05 12:11:46;;;;;;;6.18;2.67;;;;;;;;;;4988032;28;20046;-78
2022/05/05 12:14:13;;;;;;;7.25;3.00;;;;;;;;;;4985057;28;20026;-79
2022/05/05 12:16:39;;;;;;;5.63;3.78;;;;;;;;;;4982063;28;20065;-79
2022/05/05 12:19:17;;;;;;;6.25;2.50;;;19.40;61.50;;;;;;4979938;28;20026;-80
2022/05/05 12:21:56;;;;;;;6.28;2.80;;;;;;;;;;4984660;28;20053;-79
2022/05/05 12:24:23;;;;;;;9.00;2.28;;;;;;;;;;4976117;28;20039;-79
2022/05/05 12:26:51;;;;;;;5.95;2.58;;;;;;;;;;4971438;28;20041;-80
2022/05/05 12:29:20;;;;;;;9.63;4.18;;;;;;;;;;4973270;28;20572;-80
2022/05/05 12:31:57;;;;;;;7.15;2.85;;;19.10;64.30;;;;;;4982693;28;20038;-78
2022/05/05 12:34:25;;;;;;;;;;;;;;;;;;4981491;28;20051;-78
2022/05/05 12:37:05;;;;;;;3.08;1.65;;;;;;;;;;4983898;28;19916;-78
2022/05/05 12:39:31;;;;;;;6.07;3.08;;;;;;;;;;4974900;28;20038;-77
2022/05/05 12:41:57;;;;;;;6.25;1.75;;;;;;;;;;4985038;28;20047;-80
2022/05/05 12:44:32;;;;;;;3.55;2.58;;;18.20;66.00;;;;;;4981136;28;20440;-79
2022/05/05 12:47:04;;;;;;;4.47;2.05;;;;;;;;;;4984981;28;20042;-80
2022/05/05 12:49:37;;;;;;;7.88;2.58;;;;;;;;;;4977833;28;20035;-79
2022/05/05 12:59:36;;;;;;;2.85;1.77;;;17.70;71.30;;;;;;4976287;28;20026;-78
2022/05/05 13:00:39;;;;;;;7.07;3.30;;;;;;;;;;4984340;28;20527;-79
2022/05/05 13:03:05;;;;;;;2.92;1.65;;;;;;;;;;4989513;28;20682;-79
2022/05/05 13:05:31;;;;;;;3.65;1.92;;;;;;;;;;4983994;28;20039;-78
2022/05/05 13:07:57;;;;;;;5.07;2.75;;;;;;;;;;4983621;28;20085;-80
2022/05/05 13:10:23;;;;;;;3.05;1.52;;;;;;;;;;4983170;28;20073;-78
2022/05/05 13:12:49;;;;;;;7.30;2.60;;;;;;;;;;4983262;28;20049;-80
2022/05/05 13:15:15;;;;;;;3.72;1.83;;;;;;;;;;4966846;28;20503;-81
2022/05/05 13:17:41;;;;;;;2.85;2.22;;;;;;;;;;4983291;28;20029;-80
2022/05/05 13:20:07;;;;;;;5.28;1.88;;;;;;;;;;4967689;28;20062;-80
2022/05/05 13:22:33;;;;;;;5.53;2.60;;;;;;;;;;4982357;28;20041;-78
2022/05/05 13:24:59;;;;;;;3.17;1.92;;;;;;;;;;4985744;28;20047;-80
2022/05/05 13:27:25;;;;;;;4.15;1.95;;;;;;;;;;4982906;28;20046;-81
2022/05/05 13:29:51;;;;;;;2.75;1.92;;;;;;;;;;4980391;28;20022;-79
2022/05/05 13:32:17;;;;;;;1.80;1.35;;;;;;;;;;4979885;28;20618;-78
2022/05/05 13:34:43;;;;;;;2.67;1.75;;;;;;;;;;4976742;28;20066;-79
2022/05/05 13:37:10;;;;;;;3.28;1.63;;;15.20;79.30;;;;;;4985758;28;20038;-78
2022/05/05 13:39:36;;;;;;;3.60;2.35;;;;;;;;;;4979681;28;20022;-79
2022/05/05 13:42:03;;;;;;;2.50;1.35;;;;;;;;;;4987171;28;20061;-79
2022/05/05 13:44:29;;;;;;;5.22;2.13;;;;;;;;;;4990014;28;20466;-79
2022/05/05 13:46:56;;;;;;;3.08;1.70;;;;;;;;;;4987841;28;20041;-79
2022/05/05 13:49:22;;;;;;;3.30;1.65;;;;;;;;;;4985369;28;20035;-79
2022/05/05 13:51:48;;;;;;;4.50;2.67;;;;;;;;;;4985275;28;20027;-80
2022/05/05 13:54:13;;;;;;;3.65;2.05;;;;;;;;;;4988119;28;20034;-79
2022/05/05 13:56:39;;;;;;;3.80;1.08;;;;;;;;;;4987915;28;20034;-80
2022/05/05 13:59:05;;;;;;;2.67;1.25;;;;;;;;;;4989766;28;20121;-80
2022/05/05 14:01:32;;;;;;;4.20;1.80;;;;;;;;;;4984136;28;20050;-79
2022/05/05 14:03:58;;;;;;;2.00;1.42;;;;;;;;;;4989174;28;20113;-79
2022/05/05 14:06:24;;;;;;;2.45;1.10;;;;;;;;;;4988093;28;20172;-79
2022/05/05 14:14:19;;;;;;;4.88;1.42;;;;;;;;;;4989400;28;20103;-79
2022/05/05 14:16:45;;;;;;;3.67;1.40;;;;;;;;;;4991665;28;20109;-79
2022/05/05 14:19:11;;;;;;;1.38;1.25;;;;;;;;;;4988126;28;20027;-78
2022/05/05 14:21:37;;;;;;;3.53;1.40;;;;;;;;;;4989768;28;20097;-81
2022/05/05 14:24:03;;;;;;;3.33;1.83;;;;;;;;;;4988121;28;20030;-78
2022/05/05 14:26:29;;;;;;;2.65;1.35;;;;;;;;;;4992834;28;20033;-79
2022/05/05 14:28:55;;;;;;;2.47;1.92;;;;;;;;;;4988473;28;20038;-80
2022/05/05 14:31:22;;;;;;;3.47;1.98;;;;;;;;;;4987588;28;20030;-78
2022/05/05 14:33:48;;;;;;;1.90;1.23;;;;;;;;;;4990373;28;20038;-79
2022/05/05 14:36:16;;;;;;;3.13;1.98;;;;;;;;;;4989596;28;20030;-79
2022/05/05 14:38:42;;;;;;;3.45;1.67;;;;;;;;;;4989821;28;20033;-78
2022/05/05 14:41:08;;;;;;;3.22;1.05;;;;;;;;;;4986786;28;20545;-80
2022/05/05 14:43:34;;;;;;;2.83;1.70;;;;;;;;;;4987923;28;20061;-78
2022/05/05 14:46:00;;;;;;;2.90;1.70;;;;;;;;;;4986061;28;20115;-79
2022/05/05 14:48:28;;;;;;;3.72;1.48;;;;;;;;;;4990469;28;20547;-83
2022/05/05 14:50:54;;;;;;;2.65;1.58;;;;;;;;;;4987542;28;20088;-84
2022/05/05 14:53:21;;;;;;;1.92;1.42;;;;;;;;;;4992537;28;20030;-83
2022/05/05 14:55:47;;;;;;;2.90;1.63;;;;;;;;;;4987060;28;20112;-83
2022/05/05 14:58:13;;;;;;;5.28;1.98;;;;;;;;;;4987651;28;20057;-82
2022/05/05 15:00:39;;;;;;;3.88;2.03;;;;;;;;;;4986235;28;20069;-83
2022/05/05 15:03:05;;;;;;;2.63;1.38;;;;;;;;;;4988881;28;20435;-82
2022/05/05 15:05:31;;;;;;;2.85;1.42;;;;;;;;;;4988246;28;20034;-83
2022/05/05 15:07:58;;;;;;;5.95;2.60;;;;;;;;;;4984976;28;20026;-82
2022/05/05 15:10:24;;;;;;;3.22;2.05;;;;;;;;;;4982135;28;20023;-83
2022/05/05 15:12:52;;;;;;;3.42;1.75;;;;;;;;;;4992764;28;20034;-83
2022/05/05 15:15:19;;;;;;;3.22;1.55;;;;;;;;;;4989674;28;20169;-83
2022/05/05 15:17:45;;;;;;;2.72;1.40;;;;;;;;;;4973446;28;20034;-83
2022/05/05 15:20:11;;;;;;;6.97;2.65;;;;;;;;;;4987625;28;20030;-83
2022/05/05 15:22:38;;;;;;;1.95;1.60;;;;;;;;;;4988392;28;20042;-83
2022/05/05 15:25:12;;;;;;;3.63;1.55;;;;;;;;;;4988682;28;20033;-83